Time;durP1;ratioP1;P1;durP2;ratioP2;P2;SDS_P1;SDS_P2;PMS_P1;PMS_P2;Temp;Humidity;BMP_temperature;BMP_pressure;BME280_temperature;BME280_humidity;BME280_pressure;Samples;Min_cycle;Max_cycle;Signal;HPM_P1;HPM_P2
2022/09/19 00:01:58;;;;;;;2.13;1.65;;;;;;;;;;10288091;28;20076;-65
2022/09/19 00:06:57;;;;;;;1.50;1.40;;;;;;;;;;10300858;28;20068;-64
2022/09/19 00:11:55;;;;;;;2.58;1.45;;;;;;;;;;10286109;28;20071;-64
2022/09/19 00:16:57;;;;;;;3.10;1.67;;;;;;;;;;10288256;28;20079;-65
2022/09/19 00:22:00;;;;;;;1.20;1.08;;;;;;;;;;10292029;28;20085;-66
2022/09/19 00:27:00;;;;;;;1.42;1.33;;;;;;;;;;10287767;28;20071;-63
2022/09/19 00:31:59;;;;;;;3.63;1.30;;;;;;;;;;10288183;28;20068;-65
2022/09/19 00:36:58;;;;;;;4.57;1.15;;;;;;;;;;10288010;28;20075;-64
2022/09/19 00:41:56;;;;;;;5.05;1.63;;;;;;;;;;10286739;28;20091;-64
2022/09/19 00:46:56;;;;;;;1.83;1.35;;;;;;;;;;10287817;28;20056;-63
2022/09/19 00:51:59;;;;;;;1.77;1.30;;;;;;;;;;10287426;28;20411;-64
2022/09/19 00:56:58;;;;;;;3.85;1.70;;;;;;;;;;10287031;28;20036;-64
2022/09/19 01:01:57;;;;;;;3.15;2.63;;;;;;;;;;10283967;28;20450;-64
2022/09/19 01:06:59;;;;;;;4.95;1.50;;;;;;;;;;10286032;28;20060;-65
2022/09/19 01:12:03;;;;;;;3.42;1.48;;;;;;;;;;10285217;28;20525;-65
2022/09/19 01:17:06;;;;;;;2.03;1.55;;;;;;;;;;10287180;28;20060;-65
2022/09/19 01:22:08;;;;;;;2.30;1.58;;;;;;;;;;10286279;28;20076;-64
2022/09/19 01:27:18;;;;;;;1.73;1.35;;;;;;;;;;10284155;28;20518;-66
2022/09/19 01:32:22;;;;;;;5.18;1.58;;;;;;;;;;10297966;28;20057;-65
2022/09/19 01:37:30;;;;;;;2.17;1.40;;;;;;;;;;10285157;28;20064;-66
2022/09/19 01:42:29;;;;;;;2.22;1.30;;;;;;;;;;10284882;28;20072;-66
2022/09/19 01:47:36;;;;;;;2.55;1.60;;;;;;;;;;10294484;28;20449;-66
2022/09/19 01:52:41;;;;;;;3.30;1.40;;;;;;;;;;10284612;28;20077;-66
2022/09/19 01:57:47;;;;;;;2.15;1.55;;;;;;;;;;10283864;28;20049;-65
2022/09/19 02:02:54;;;;;;;3.08;1.67;;;;;;;;;;10284485;28;20470;-66
2022/09/19 02:08:00;;;;;;;2.63;1.48;;;;;;;;;;10282907;28;20491;-65
2022/09/19 02:13:05;;;;;;;4.15;1.70;;;;;;;;;;10282530;28;20044;-66
2022/09/19 02:18:24;;;;;;;2.08;1.48;;;;;;;;;;10285191;28;20072;-65
2022/09/19 02:23:24;;;;;;;1.48;1.38;;;;;;;;;;10282774;28;20076;-65
2022/09/19 02:28:25;;;;;;;2.15;1.65;;;;;;;;;;10282720;28;20434;-65
2022/09/19 02:33:27;;;;;;;2.10;1.27;;;;;;;;;;10281829;28;20426;-64
2022/09/19 02:38:31;;;;;;;1.50;1.40;;;;;;;;;;10284128;28;20079;-65
2022/09/19 02:43:29;;;;;;;;;;;;;;;;;;10283608;28;20537;-65
2022/09/19 02:48:30;;;;;;;2.05;1.50;;;;;;;;;;10282450;28;20321;-65
2022/09/19 02:53:33;;;;;;;3.72;1.30;;;;;;;;;;10282129;28;20041;-66
2022/09/19 02:58:33;;;;;;;1.83;1.10;;;;;;;;;;10281781;28;20045;-66
2022/09/19 03:08:52;;;;;;;1.38;1.27;;;;;;;;;;10282531;28;20088;-66
2022/09/19 03:13:58;;;;;;;2.47;1.35;;;;;;;;;;10281081;28;20056;-66
2022/09/19 03:18:59;;;;;;;2.50;1.42;;;;;;;;;;10281616;28;20045;-66
2022/09/19 03:23:59;;;;;;;3.30;1.48;;;;;;;;;;10286334;28;20553;-66
2022/09/19 03:28:58;;;;;;;1.55;1.15;;;;;;;;;;10290397;28;20055;-66
2022/09/19 03:34:06;;;;;;;1.50;1.40;;;;;;;;;;10288746;28;20055;-66
2022/09/19 03:39:05;;;;;;;4.65;1.70;;;;;;;;;;10290583;28;20045;-66
2022/09/19 03:44:09;;;;;;;2.40;1.60;;;;;;;;;;10289627;28;20099;-65
2022/09/19 03:49:11;;;;;;;1.40;1.30;;;;;;;;;;10289462;28;20073;-65
2022/09/19 03:54:10;;;;;;;2.58;1.20;;;;;;;;;;10289296;28;20081;-67
2022/09/19 03:59:12;;;;;;;1.70;1.60;;;;;;;;;;10288750;28;20057;-66
2022/09/19 04:04:15;;;;;;;2.58;1.92;;;;;;;;;;10287509;28;20490;-66
2022/09/19 04:09:19;;;;;;;4.90;2.53;;;;;;;;;;10294034;28;20060;-66
2022/09/19 04:14:20;;;;;;;2.83;1.45;;;;;;;;;;10290922;28;20060;-66
2022/09/19 04:19:20;;;;;;;3.25;1.33;;;;;;;;;;10288505;28;20083;-65
2022/09/19 04:24:43;;;;;;;3.63;2.20;;;;;;;;;;10287307;28;20104;-66
2022/09/19 04:29:50;;;;;;;3.03;1.33;;;;;;;;;;10282045;28;20045;-66
2022/09/19 04:34:49;;;;;;;13.52;10.25;;;;;;;;;;10286161;28;20056;-66
2022/09/19 04:39:48;;;;;;;5.88;2.80;;;;;;;;;;10285443;28;20052;-65
2022/09/19 04:44:47;;;;;;;2.53;1.27;;;;;;;;;;10277394;28;20076;-65
2022/09/19 04:50:07;;;;;;;3.83;1.63;;;;;;;;;;10282034;28;20087;-65
2022/09/19 04:55:07;;;;;;;1.65;1.20;;;;;;;;;;10287762;28;20502;-65
2022/09/19 05:00:06;;;;;;;1.60;1.38;;;;;;;;;;10282508;28;20150;-66
2022/09/19 05:05:07;;;;;;;11.52;7.72;;;;;;;;;;10280711;28;20084;-65
2022/09/19 05:10:08;;;;;;;2.17;1.42;;;;;;;;;;10282564;28;20588;-65
2022/09/19 05:15:08;;;;;;;5.85;1.88;;;;;;;;;;10281557;28;20088;-66
2022/09/19 05:20:09;;;;;;;5.20;2.47;;;;;;;;;;10284717;28;20053;-65
2022/09/19 05:25:09;;;;;;;3.72;1.50;;;;;;;;;;10283827;28;20072;-67
2022/09/19 05:30:12;;;;;;;8.05;3.03;;;;;;;;;;10283305;28;20056;-66
2022/09/19 05:35:14;;;;;;;17.70;3.42;;;;;;;;;;10292125;28;20068;-66
2022/09/19 05:40:20;;;;;;;5.07;3.25;;;;;;;;;;10283972;28;20049;-66
2022/09/19 05:45:37;;;;;;;6.05;2.63;;;;;;;;;;10287214;28;20087;-64
2022/09/19 05:50:37;;;;;;;1.73;1.45;;;;;;;;;;10283407;28;20529;-66
2022/09/19 05:55:36;;;;;;;3.97;1.95;;;;;;;;;;10288756;28;20060;-64
2022/09/19 06:00:55;;;;;;;3.53;1.40;;;;;;;;;;10291778;28;20545;-65
2022/09/19 06:05:55;;;;;;;5.25;1.45;;;;;;;;;;10282890;28;20080;-66
2022/09/19 06:10:54;;;;;;;2.17;1.15;;;;;;;;;;10278031;28;20088;-66
2022/09/19 06:15:55;;;;;;;6.50;1.23;;;;;;;;;;10279158;28;20095;-66
2022/09/19 06:21:15;;;;;;;2.03;1.23;;;;;;;;;;10279353;28;20163;-66
2022/09/19 06:26:16;;;;;;;3.83;1.13;;;;;;;;;;10277246;28;20091;-65
2022/09/19 06:31:15;;;;;;;1.95;1.23;;;;;;;;;;10281154;28;20073;-66
2022/09/19 06:36:44;;;;;;;1.55;1.20;;;;;;;;;;10281025;28;20060;-66
2022/09/19 06:41:42;;;;;;;1.98;1.00;;;;;;;;;;10283530;28;20507;-66
2022/09/19 06:46:44;;;;;;;3.22;1.20;;;;;;;;;;10292710;28;20076;-67
2022/09/19 06:52:03;;;;;;;1.98;1.25;;;;;;;;;;10288946;28;20044;-66
2022/09/19 06:57:01;;;;;;;1.27;1.17;;;;;;;;;;10286953;28;20052;-66
2022/09/19 07:02:00;;;;;;;4.10;1.90;;;;;;;;;;10273786;28;20052;-66
2022/09/19 07:06:58;;;;;;;6.13;1.88;;;;;;;;;;10276606;28;20076;-66
2022/09/19 07:12:01;;;;;;;2.53;1.55;;;;;;;;;;10281113;28;20072;-65
2022/09/19 07:17:02;;;;;;;4.15;1.63;;;;;;;;;;10280650;28;20037;-66
2022/09/19 07:22:00;;;;;;;4.13;2.00;;;;;;;;;;10279956;28;20083;-66
2022/09/19 07:27:23;;;;;;;4.45;1.60;;;;;;;;;;10281599;28;20051;-66
2022/09/19 07:32:21;;;;;;;1.92;1.40;;;;;;;;;;10291364;28;20044;-68
2022/09/19 07:37:20;;;;;;;3.95;1.45;;;;;;;;;;10291223;28;20064;-66
2022/09/19 07:42:41;;;;;;;2.42;1.70;;;;;;;;;;10290683;28;20076;-69
2022/09/19 07:47:57;;;;;;;3.83;1.25;;;;;;;;;;10291388;28;20056;-67
2022/09/19 07:53:19;;;;;;;1.45;1.35;;;;;;;;;;10281536;28;20075;-67
2022/09/19 07:58:19;;;;;;;3.75;1.40;;;;;;;;;;10280686;28;20430;-66
2022/09/19 08:03:25;;;;;;;2.40;1.75;;;;;;;;;;10280752;28;20171;-66
2022/09/19 08:08:25;;;;;;;2.72;1.45;;;;;;;;;;10282965;28;20049;-68
2022/09/19 08:13:25;;;;;;;2.72;1.30;;;;;;;;;;10287539;28;20065;-66
2022/09/19 08:18:26;;;;;;;4.93;1.27;;;;;;;;;;10287990;28;20049;-66
2022/09/19 08:23:26;;;;;;;2.17;1.50;;;;;;;;;;10287913;28;20564;-66
2022/09/19 08:28:30;;;;;;;1.48;1.20;;;;;;;;;;10287902;28;20080;-67
2022/09/19 08:33:29;;;;;;;3.28;1.13;;;;;;;;;;10286124;28;20064;-67
2022/09/19 08:38:29;;;;;;;4.13;1.50;;;;;;;;;;10287405;28;20503;-67
2022/09/19 08:43:35;;;;;;;5.93;3.67;;;;;;;;;;10286915;28;20084;-68
2022/09/19 08:48:33;;;;;;;;;;;;;;;;;;10287604;28;20091;-67
2022/09/19 08:53:33;;;;;;;6.03;1.88;;;;;;;;;;10285420;28;19928;-66
2022/09/19 08:58:37;;;;;;;4.35;1.52;;;;;;;;;;10286835;28;20396;-66
2022/09/19 09:03:47;;;;;;;4.00;1.70;;;;;;;;;;10277859;28;20525;-66
2022/09/19 09:08:50;;;;;;;1.48;1.38;;;;;;;;;;10293366;28;20041;-67
2022/09/19 09:14:05;;;;;;;3.45;1.20;;;;;;;;;;10289426;28;20071;-67
2022/09/19 09:19:16;;;;;;;1.83;1.13;;;;;;;;;;10285943;28;20442;-67
2022/09/19 09:24:19;;;;;;;7.55;4.75;;;;;;;;;;10284049;28;20092;-67
2022/09/19 09:29:50;;;;;;;2.00;1.40;;;;;;;;;;10279351;28;20053;-66
2022/09/19 09:35:03;;;;;;;3.05;1.15;;;;;;;;;;10279866;28;20515;-66
2022/09/19 09:40:12;;;;;;;2.33;1.05;;;;;;;;;;10285259;28;20447;-67
2022/09/19 09:45:20;;;;;;;7.22;1.10;;;;;;;;;;10283892;28;20497;-65
2022/09/19 09:50:41;;;;;;;3.60;1.35;;;;;;;;;;10282369;28;20056;-67
2022/09/19 10:06:31;;;;;;;2.13;1.40;;;;;;;;;;10292775;28;20568;-66
2022/09/19 10:11:35;;;;;;;3.53;1.17;;;;;;;;;;10295605;28;20068;-65
2022/09/19 10:16:59;;;;;;;1.98;1.20;;;;;;;;;;10286603;28;20539;-65
2022/09/19 10:22:05;;;;;;;1.10;0.77;;;;;;;;;;10281283;28;20085;-66
2022/09/19 10:27:10;;;;;;;0.93;0.80;;;;;;;;;;10281575;28;20095;-67
2022/09/19 10:32:19;;;;;;;1.75;1.40;;;;;;;;;;10291091;28;20072;-67
2022/09/19 10:37:35;;;;;;;4.85;1.00;;;;;;;;;;10289170;28;20092;-66
2022/09/19 10:42:38;;;;;;;2.55;0.93;;;;;;;;;;10274444;28;20056;-66
2022/09/19 10:47:41;;;;;;;2.10;1.13;;;;;;;;;;10275746;28;20072;-66
2022/09/19 10:52:49;;;;;;;0.80;0.70;;;;;;;;;;10281978;28;20072;-67
2022/09/19 10:57:59;;;;;;;0.95;0.90;;;;;;;;;;10282101;28;20151;-66
2022/09/19 11:03:06;;;;;;;0.98;0.88;;;;;;;;;;10280530;28;20085;-67
2022/09/19 11:08:23;;;;;;;1.13;0.73;;;;;;;;;;10284575;28;20087;-66
2022/09/19 11:13:26;;;;;;;3.50;1.55;;;;;;;;;;10280596;28;20048;-67
2022/09/19 11:18:32;;;;;;;0.90;0.90;;;;;;;;;;10280616;28;20060;-67
2022/09/19 11:23:38;;;;;;;1.33;1.10;;;;;;;;;;10279758;28;20056;-66
2022/09/19 11:28:43;;;;;;;1.63;1.02;;;;;;;;;;10280149;28;20072;-66
2022/09/19 11:33:53;;;;;;;1.27;1.17;;;;;;;;;;10280914;28;20490;-66
2022/09/19 11:39:39;;;;;;;1.33;1.20;;;;;;;;;;10281657;28;20049;-65
2022/09/19 11:44:59;;;;;;;0.90;0.85;;;;;;;;;;10277313;28;20119;-67
2022/09/19 11:50:14;;;;;;;0.98;0.90;;;;;;;;;;10286303;28;20084;-68
2022/09/19 11:55:22;;;;;;;3.63;0.90;;;;;;;;;;10287096;28;20611;-67
2022/09/19 12:00:25;;;;;;;1.13;0.90;;;;;;;;;;10285254;28;20083;-67
2022/09/19 12:05:36;;;;;;;0.63;0.60;;;;;;;;;;10289027;28;20506;-66
2022/09/19 12:10:35;;;;;;;0.60;0.60;;;;;;;;;;10310441;28;20052;-66
2022/09/19 12:15:36;;;;;;;1.75;1.20;;;;;;;;;;10298634;28;20455;-67
2022/09/19 12:20:40;;;;;;;1.00;0.85;;;;;;;;;;10283815;28;20080;-67
2022/09/19 12:25:40;;;;;;;1.20;1.10;;;;;;;;;;10312943;28;20087;-67
2022/09/19 12:30:42;;;;;;;3.03;1.23;;;;;;;;;;10297654;28;20052;-67
2022/09/19 12:35:45;;;;;;;1.10;0.80;;;;;;;;;;10279219;28;20422;-64
2022/09/19 12:40:48;;;;;;;4.63;1.00;;;;;;;;;;10289199;28;20060;-65
2022/09/19 12:45:53;;;;;;;2.08;1.00;;;;;;;;;;10284798;28;20529;-65
2022/09/19 12:50:58;;;;;;;1.65;1.10;;;;;;;;;;10290316;28;20056;-66
2022/09/19 12:56:00;;;;;;;1.45;1.35;;;;;;;;;;10285320;28;20166;-65
2022/09/19 13:01:05;;;;;;;1.25;0.80;;;;;;;;;;10287256;28;20453;-65
2022/09/19 13:06:11;;;;;;;1.50;0.90;;;;;;;;;;10286134;28;20095;-65
2022/09/19 13:11:13;;;;;;;0.88;0.88;;;;;;;;;;10286453;28;20091;-66
2022/09/19 13:16:13;;;;;;;1.52;1.00;;;;;;;;;;10288945;28;20095;-67
2022/09/19 13:26:35;;;;;;;1.05;1.00;;;;;;;;;;10278617;28;20072;-66
2022/09/19 13:31:39;;;;;;;1.08;0.98;;;;;;;;;;10289571;28;20079;-66
2022/09/19 13:36:46;;;;;;;3.55;1.13;;;;;;;;;;10292509;28;20036;-66
2022/09/19 13:41:45;;;;;;;2.20;1.35;;;;;;;;;;10292099;28;20073;-67
2022/09/19 13:46:49;;;;;;;11.55;2.50;;;;;;;;;;10277675;28;20068;-66
2022/09/19 13:51:55;;;;;;;1.20;1.10;;;;;;;;;;10291843;28;20059;-66
2022/09/19 13:57:02;;;;;;;1.33;1.23;;;;;;;;;;10284678;28;20079;-66
2022/09/19 14:02:01;;;;;;;4.82;2.15;;;;;;;;;;10289824;28;20064;-66
2022/09/19 14:07:02;;;;;;;2.38;1.55;;;;;;;;;;10283065;28;20076;-66
2022/09/19 14:12:45;;;;;;;3.42;2.50;;;;;;;;;;10281703;28;20474;-66
2022/09/19 14:18:02;;;;;;;1.83;1.45;;;;;;;;;;10283169;28;20187;-66
2022/09/19 14:23:03;;;;;;;2.65;2.35;;;;;;;;;;10282617;28;20091;-66
2022/09/19 14:28:10;;;;;;;8.32;2.95;;;;;;;;;;10294117;28;20502;-66
2022/09/19 14:33:22;;;;;;;1.52;1.40;;;;;;;;;;10282606;28;20068;-67
2022/09/19 14:38:28;;;;;;;2.17;1.45;;;;;;;;;;10283234;28;20056;-67
2022/09/19 14:43:44;;;;;;;1.50;1.10;;;;;;;;;;10283266;28;20080;-67
2022/09/19 14:48:50;;;;;;;4.32;3.92;;;;;;;;;;10285314;28;20076;-66
2022/09/19 14:53:50;;;;;;;1.13;1.02;;;;;;;;;;10282422;28;20049;-66
2022/09/19 14:58:52;;;;;;;4.68;2.60;;;;;;;;;;10285898;28;20092;-66
2022/09/19 15:03:56;;;;;;;3.85;2.50;;;;;;;;;;10282207;28;20075;-66
2022/09/19 15:08:56;;;;;;;3.20;2.88;;;;;;;;;;10281827;28;20486;-66
2022/09/19 15:13:55;;;;;;;6.38;2.13;;;;;;;;;;10282515;28;20430;-66
2022/09/19 15:18:56;;;;;;;3.63;1.70;;;;;;;;;;10284530;28;20053;-68
2022/09/19 15:23:57;;;;;;;2.58;2.38;;;;;;;;;;10289869;28;20050;-65
2022/09/19 15:28:56;;;;;;;5.10;3.85;;;;;;;;;;10289663;28;20076;-66
2022/09/19 15:33:57;;;;;;;2.28;2.05;;;;;;;;;;10291228;28;20467;-67
2022/09/19 15:38:57;;;;;;;13.10;7.30;;;;;;;;;;10290042;28;20075;-67
2022/09/19 15:43:56;;;;;;;23.60;19.27;;;;;;;;;;10288764;28;20494;-65
2022/09/19 15:48:56;;;;;;;23.83;19.73;;;;;;;;;;10290451;28;20072;-67
2022/09/19 15:54:05;;;;;;;14.95;11.38;;;;;;;;;;10289915;28;20076;-66
2022/09/19 15:59:04;;;;;;;7.00;4.78;;;;;;;;;;10289030;28;20073;-66
2022/09/19 16:04:03;;;;;;;7.15;3.33;;;;;;;;;;10289381;28;20167;-67
2022/09/19 16:09:10;;;;;;;8.25;2.15;;;;;;;;;;10289234;28;20080;-67
2022/09/19 16:14:15;;;;;;;2.42;2.10;;;;;;;;;;10287177;28;20463;-66
2022/09/19 16:19:23;;;;;;;1.50;1.20;;;;;;;;;;10288954;28;20501;-66
2022/09/19 16:24:24;;;;;;;2.20;1.60;;;;;;;;;;10288718;28;20091;-67
2022/09/19 16:29:24;;;;;;;3.22;2.60;;;;;;;;;;10288003;28;20474;-66
2022/09/19 16:34:24;;;;;;;2.65;2.22;;;;;;;;;;10288683;28;20079;-66
2022/09/19 16:39:26;;;;;;;4.68;1.88;;;;;;;;;;10287887;28;20041;-65
2022/09/19 16:44:34;;;;;;;4.55;2.50;;;;;;;;;;10287306;28;20479;-65
2022/09/19 16:49:34;;;;;;;4.38;2.20;;;;;;;;;;10287904;28;20552;-65
2022/09/19 16:54:35;;;;;;;5.32;3.00;;;;;;;;;;10289352;28;20087;-66
2022/09/19 16:59:33;;;;;;;5.30;2.03;;;;;;;;;;10284500;28;20391;-67
2022/09/19 17:04:31;;;;;;;2.17;1.98;;;;;;;;;;10285298;28;20411;-68
2022/09/19 17:09:31;;;;;;;3.72;2.50;;;;;;;;;;10285464;28;20076;-69
2022/09/19 17:14:30;;;;;;;7.50;2.45;;;;;;;;;;10286364;28;20088;-67
2022/09/19 17:19:29;;;;;;;5.18;2.33;;;;;;;;;;10287035;28;20075;-67
2022/09/19 17:24:27;;;;;;;8.25;7.45;;;;;;;;;;10303010;28;20088;-67
2022/09/19 17:29:26;;;;;;;5.82;4.15;;;;;;;;;;10288288;28;20107;-66
2022/09/19 17:34:25;;;;;;;3.47;3.17;;;;;;;;;;10279361;28;20073;-67
2022/09/19 17:39:23;;;;;;;3.13;2.70;;;;;;;;;;10293917;28;20049;-67
2022/09/19 17:44:22;;;;;;;2.25;1.80;;;;;;;;;;10287926;28;20494;-68
2022/09/19 17:49:20;;;;;;;2.53;2.17;;;;;;;;;;10277909;28;20083;-66
2022/09/19 17:54:20;;;;;;;3.60;1.40;;;;;;;;;;10285173;28;20522;-69
2022/09/19 17:59:20;;;;;;;2.45;1.80;;;;;;;;;;10283767;28;20072;-68
2022/09/19 18:04:21;;;;;;;3.20;2.90;;;;;;;;;;10286447;28;20513;-66
2022/09/19 18:09:21;;;;;;;3.38;2.25;;;;;;;;;;10289681;28;20378;-67
2022/09/19 18:14:20;;;;;;;2.30;1.33;;;;;;;;;;10286332;28;20076;-67
2022/09/19 18:19:19;;;;;;;2.72;1.20;;;;;;;;;;10288140;28;20439;-66
2022/09/19 18:24:18;;;;;;;1.95;1.80;;;;;;;;;;10289534;28;20091;-67
2022/09/19 18:29:19;;;;;;;3.10;1.50;;;;;;;;;;10282706;28;20080;-66
2022/09/19 18:34:21;;;;;;;1.38;1.15;;;;;;;;;;10293699;28;20072;-67
2022/09/19 18:39:27;;;;;;;2.85;1.27;;;;;;;;;;10293006;28;20080;-66
2022/09/19 18:44:26;;;;;;;3.80;1.35;;;;;;;;;;10285453;28;20067;-67
2022/09/19 18:49:26;;;;;;;4.18;1.40;;;;;;;;;;10283349;28;20072;-67
2022/09/19 18:54:24;;;;;;;2.38;1.10;;;;;;;;;;10290627;28;20087;-68
2022/09/19 18:59:23;;;;;;;2.83;1.65;;;;;;;;;;10284571;28;20107;-68
2022/09/19 19:04:24;;;;;;;3.85;1.20;;;;;;;;;;10283535;28;20473;-67
2022/09/19 19:09:22;;;;;;;2.47;1.90;;;;;;;;;;10284534;28;20451;-67
2022/09/19 19:14:22;;;;;;;2.17;1.98;;;;;;;;;;10285599;28;20068;-67
2022/09/19 19:19:21;;;;;;;1.30;1.20;;;;;;;;;;10279579;28;20080;-67
2022/09/19 19:24:25;;;;;;;1.73;1.10;;;;;;;;;;10282420;28;20091;-66
2022/09/19 19:29:24;;;;;;;6.72;1.10;;;;;;;;;;10294166;28;20080;-67
2022/09/19 19:34:22;;;;;;;1.77;1.10;;;;;;;;;;10280875;28;20076;-67
2022/09/19 19:39:20;;;;;;;3.90;1.42;;;;;;;;;;10288095;28;20533;-67
2022/09/19 19:44:21;;;;;;;9.60;1.80;;;;;;;;;;10298316;28;20434;-66
2022/09/19 19:49:22;;;;;;;6.82;2.45;;;;;;;;;;10288173;28;20079;-66
2022/09/19 19:54:20;;;;;;;7.70;3.22;;;;;;;;;;10285858;28;20506;-67
2022/09/19 19:59:23;;;;;;;10.88;3.28;;;;;;;;;;10288860;28;20060;-67
2022/09/19 20:04:23;;;;;;;3.30;2.40;;;;;;;;;;10285699;28;20055;-66
2022/09/19 20:09:21;;;;;;;11.85;3.10;;;;;;;;;;10289904;28;20084;-67
2022/09/19 20:14:22;;;;;;;7.55;2.17;;;;;;;;;;10282942;28;20064;-67
2022/09/19 20:19:20;;;;;;;4.68;1.80;;;;;;;;;;10287256;28;20068;-68
2022/09/19 20:24:21;;;;;;;8.02;1.45;;;;;;;;;;10289892;28;20084;-66
2022/09/19 20:29:21;;;;;;;5.07;1.25;;;;;;;;;;10290124;28;20080;-67
2022/09/19 20:34:21;;;;;;;1.73;1.20;;;;;;;;;;10288499;28;20473;-68
2022/09/19 20:39:21;;;;;;;3.15;1.38;;;;;;;;;;10290427;28;20466;-68
2022/09/19 20:44:22;;;;;;;2.60;1.45;;;;;;;;;;10290292;28;20057;-67
2022/09/19 20:49:24;;;;;;;1.60;1.05;;;;;;;;;;10290014;28;20069;-68
2022/09/19 20:54:24;;;;;;;1.15;0.90;;;;;;;;;;10290578;28;20080;-67
2022/09/19 20:59:22;;;;;;;1.25;1.00;;;;;;;;;;10290173;28;20543;-68
2022/09/19 21:04:21;;;;;;;2.05;1.45;;;;;;;;;;10288694;28;20076;-67
2022/09/19 21:09:19;;;;;;;3.95;0.90;;;;;;;;;;10287819;28;20087;-68
2022/09/19 21:14:19;;;;;;;1.50;1.20;;;;;;;;;;10283908;28;20447;-68
2022/09/19 21:19:17;;;;;;;1.60;0.80;;;;;;;;;;10301806;28;20458;-68
2022/09/19 21:24:15;;;;;;;2.40;1.10;;;;;;;;;;10290737;28;20088;-67
2022/09/19 21:29:15;;;;;;;0.88;0.80;;;;;;;;;;10302808;28;20091;-67
2022/09/19 21:34:15;;;;;;;4.05;0.85;;;;;;;;;;10281309;28;20588;-66
2022/09/19 21:39:13;;;;;;;1.30;1.00;;;;;;;;;;10287110;28;20148;-67
2022/09/19 21:44:11;;;;;;;3.08;1.40;;;;;;;;;;10286813;28;20537;-66
2022/09/19 21:49:10;;;;;;;1.70;1.08;;;;;;;;;;10286488;28;20499;-67
2022/09/19 21:54:09;;;;;;;0.80;0.80;;;;;;;;;;10292551;28;20084;-66
2022/09/19 21:59:08;;;;;;;4.07;1.75;;;;;;;;;;10295408;28;20067;-68
2022/09/19 22:04:07;;;;;;;1.23;1.13;;;;;;;;;;10289225;28;20517;-67
2022/09/19 22:09:06;;;;;;;2.75;1.00;;;;;;;;;;10283670;28;20080;-68
2022/09/19 22:14:06;;;;;;;2.30;1.10;;;;;;;;;;10285369;28;20279;-66
2022/09/19 22:19:05;;;;;;;2.50;1.15;;;;;;;;;;10285592;28;20072;-67
2022/09/19 22:24:04;;;;;;;2.47;1.30;;;;;;;;;;10284694;28;20095;-67
2022/09/19 22:29:02;;;;;;;3.00;1.00;;;;;;;;;;10283643;28;20084;-66
2022/09/19 22:34:02;;;;;;;3.60;1.45;;;;;;;;;;10285803;28;20167;-67
2022/09/19 22:39:01;;;;;;;1.48;1.20;;;;;;;;;;10290151;28;20041;-67
2022/09/19 22:44:00;;;;;;;3.78;1.15;;;;;;;;;;10283202;28;20072;-68
2022/09/19 22:48:58;;;;;;;1.35;1.25;;;;;;;;;;10284668;28;20087;-68
2022/09/19 22:53:58;;;;;;;1.20;1.10;;;;;;;;;;10290774;28;20783;-67
2022/09/19 22:58:56;;;;;;;1.65;1.00;;;;;;;;;;10289404;28;20083;-68
2022/09/19 23:03:56;;;;;;;1.20;1.08;;;;;;;;;;10284829;28;20103;-67
2022/09/19 23:08:56;;;;;;;1.17;1.08;;;;;;;;;;10284743;28;20088;-69
2022/09/19 23:14:00;;;;;;;1.50;1.10;;;;;;;;;;10277016;28;20073;-67
2022/09/19 23:18:59;;;;;;;1.58;1.40;;;;;;;;;;10275855;28;20084;-67
2022/09/19 23:23:58;;;;;;;1.60;1.40;;;;;;;;;;10280204;28;20092;-67
2022/09/19 23:28:57;;;;;;;0.95;0.82;;;;;;;;;;10290800;28;20187;-67
2022/09/19 23:33:57;;;;;;;1.70;1.27;;;;;;;;;;10283010;28;20072;-68
2022/09/19 23:38:56;;;;;;;1.42;1.33;;;;;;;;;;10283475;28;20068;-67
2022/09/19 23:43:55;;;;;;;0.80;0.80;;;;;;;;;;10290998;28;20068;-67
2022/09/19 23:48:55;;;;;;;1.92;1.52;;;;;;;;;;10290819;28;20065;-68
2022/09/19 23:53:54;;;;;;;1.40;1.30;;;;;;;;;;10291198;28;20048;-67
2022/09/19 23:58:53;;;;;;;1.90;1.08;;;;;;;;;;10290981;28;20392;-68
